Conche, Canada
Current Conditions -  °F | °C
As of 3:00 PM on Wednesday 26 Nov 2014 (Local Time) from CYAY Reporting Station
Clear Clear  
Wind Chill: 19°   Ceiling: Unl
Heat Index: 32°   Visibility: 9mi
Dew Point: 21°   Wind: 23mph
Humidity: 64%   Direction: 270°W
Pressure: 29.84"   Gusts: NA
Location:  50.9°N, 55.9°W
Report Text: CYAY 261800Z AUTO 27020KT 9SM CLR M00/M06 A2984 RMK PRESRR SLP108
Loading
Personal Weather Stations






























Interactive Weather Map New forecast layout! Learn more

10-Day Weather Forecast

Advertisements
Track Severe Weather on mobile